43AR weather

Haigwood Landing Strip
Newport, Arkansas, United States

Public forecast

Using degrees Fahrenheit for public forecast. Weather courtesy of forecast.io.

METAR (pilot weather report)

Closest report is Newport Regional Airport, 3.5 nm (6.6 km) ENE. Retrieved UTC (0 seconds ago):

TAF (pilot weather forecast)

Closest forecast is Jonesboro Municipal Airport, 31.9 nm (59.0 km) ENE. Retrieved 2019/07/19 12:30 UTC (2 hours ago):

TAF KJBR 191129Z 1912/2012 20005KT P6SM FEW030 SCT250 FM191600 22010KT P6SM SCT040 SCT150 FM200100 20004KT P6SM FEW050 FEW150